createdAt,value
2022-09-11T00:01:32.001Z,962.43
2022-09-11T00:16:34.545Z,962.36
2022-09-11T00:31:37.111Z,962.26
2022-09-11T00:46:39.504Z,962.28
2022-09-11T01:01:41.893Z,962.22
2022-09-11T01:16:44.256Z,962.17
2022-09-11T01:31:46.645Z,962.27
2022-09-11T01:46:49.191Z,962.34
2022-09-11T02:01:51.607Z,962.47
2022-09-11T02:16:53.969Z,962.51
2022-09-11T02:31:56.276Z,962.7
2022-09-11T02:46:58.609Z,962.99
2022-09-11T03:02:00.974Z,963.22
2022-09-11T03:17:03.333Z,963.5
2022-09-11T03:32:05.598Z,963.72
2022-09-11T03:47:07.932Z,963.95
2022-09-11T04:02:10.293Z,964.07
2022-09-11T04:17:12.679Z,964.18
2022-09-11T04:32:14.918Z,964.24
2022-09-11T04:47:17.244Z,964.4
2022-09-11T05:02:19.647Z,964.64
2022-09-11T05:17:22.011Z,964.73
2022-09-11T05:32:24.359Z,964.86
2022-09-11T05:47:26.863Z,964.97
2022-09-11T06:02:29.262Z,965.05
2022-09-11T06:17:31.802Z,965.18
2022-09-11T06:32:34.087Z,965.28
2022-09-11T06:47:36.361Z,965.34
2022-09-11T07:02:38.694Z,965.48
2022-09-11T07:17:41.043Z,965.48
2022-09-11T07:32:43.277Z,965.47
2022-09-11T07:47:45.582Z,965.53
2022-09-11T08:02:47.884Z,965.74
2022-09-11T08:17:50.235Z,965.66
2022-09-11T08:32:52.585Z,965.65
2022-09-11T08:47:55.041Z,965.9
2022-09-11T09:02:57.370Z,966.03
2022-09-11T09:17:59.988Z,966.08
2022-09-11T09:33:02.512Z,966.3
2022-09-11T09:48:05.062Z,966.42
2022-09-11T10:03:07.568Z,966.54
2022-09-11T10:18:09.902Z,966.58
2022-09-11T10:33:12.227Z,966.76
2022-09-11T10:48:14.521Z,966.76
2022-09-11T11:03:16.857Z,966.68
2022-09-11T11:18:19.104Z,966.67
2022-09-11T11:33:21.434Z,966.83
2022-09-11T11:48:23.789Z,966.99
2022-09-11T12:03:26.214Z,967.01
2022-09-11T12:18:28.579Z,967.22
2022-09-11T12:33:30.880Z,967.18
2022-09-11T12:48:33.440Z,967.29
2022-09-11T13:03:35.923Z,967.32
2022-09-11T13:18:38.255Z,967.41
2022-09-11T13:33:40.995Z,967.5
2022-09-11T13:48:43.338Z,967.8
2022-09-11T14:03:45.653Z,967.81
2022-09-11T14:18:47.957Z,967.87
2022-09-11T14:33:50.370Z,967.9
2022-09-11T14:48:52.655Z,968.04
2022-09-11T15:03:55.291Z,967.96
2022-09-11T15:18:57.639Z,967.86
2022-09-11T15:33:59.960Z,967.67
2022-09-11T15:49:02.586Z,968.17
2022-09-11T16:04:05.126Z,968.15
2022-09-11T16:19:07.634Z,968.23
2022-09-11T16:34:09.979Z,968.13
2022-09-11T16:49:12.290Z,968.22
2022-09-11T17:04:14.700Z,968.21
2022-09-11T17:19:17.222Z,968.06
2022-09-11T17:34:19.493Z,968.05
2022-09-11T17:49:22.007Z,967.86
2022-09-11T18:04:24.281Z,968.04
2022-09-11T18:19:26.612Z,967.97
2022-09-11T18:34:28.998Z,967.73
2022-09-11T18:49:31.276Z,967.63
2022-09-11T19:04:33.614Z,967.14
2022-09-11T19:19:35.989Z,967.12
2022-09-11T19:34:38.892Z,967.31
2022-09-11T19:49:41.306Z,967.13
2022-09-11T20:04:43.580Z,967.06
2022-09-11T20:19:45.901Z,966.91
2022-09-11T20:34:48.222Z,966.38
2022-09-11T20:49:50.615Z,965.77
2022-09-11T21:04:52.960Z,965.33
2022-09-11T21:19:57.421Z,965.04
2022-09-11T21:35:00.007Z,964.79
2022-09-11T21:50:02.607Z,964.73
2022-09-11T22:05:04.958Z,964.59
2022-09-11T22:20:07.313Z,964.25
2022-09-11T22:35:09.524Z,963.92
2022-09-11T22:50:11.920Z,963.83
2022-09-11T23:05:14.260Z,963.65
2022-09-11T23:20:16.484Z,963.51
2022-09-11T23:35:18.718Z,963.5
2022-09-11T23:50:20.968Z,963.45
